Angelica, Wisconsin
Current Conditions -  °F | °C
As of 1:53 AM on Friday 19 Dec 2014 (Local Time) from KGRB Reporting Station
Clear Clear  
Wind Chill: -8°   Ceiling: Unl
Heat Index: -8°   Visibility: 9mi
Dew Point: -9°   Wind: 0mph
Humidity: 88%   Direction: NA
Pressure: 30.28"   Gusts: NA
Location:  44.6594°N, 88.2945°W
Report Text: KGRB 190753Z AUTO 00000KT 9SM CLR M08/M09 A3028 RMK AO2 SLP264 T10781094
Loading
Personal Weather Stations






























Interactive Weather Map New forecast layout! Learn more

10-Day Weather Forecast

Advertisements
Track Severe Weather on mobile